createdAt,value
2018-12-08T00:00:32.063Z,0
2018-12-08T00:01:12.881Z,0
2018-12-08T00:01:53.729Z,0
2018-12-08T00:02:34.557Z,0
2018-12-08T00:03:16.271Z,0
2018-12-08T00:03:57.484Z,0
2018-12-08T00:05:05.521Z,0
2018-12-08T00:07:05.977Z,0
2018-12-08T00:07:46.750Z,0
2018-12-08T00:08:28.503Z,0
2018-12-08T00:09:12.847Z,0
2018-12-08T00:09:56.573Z,0
2018-12-08T00:10:37.411Z,0
2018-12-08T00:11:18.204Z,0
2018-12-08T00:11:58.974Z,0
2018-12-08T00:12:39.700Z,0
2018-12-08T00:13:20.398Z,0
2018-12-08T00:14:01.144Z,0
2018-12-08T00:14:41.975Z,0
2018-12-08T00:15:22.784Z,0
2018-12-08T00:16:03.584Z,0
2018-12-08T00:16:44.308Z,0
2018-12-08T00:17:25.855Z,0
2018-12-08T00:18:06.618Z,0
2018-12-08T00:18:47.381Z,0
2018-12-08T00:21:11.199Z,0
2018-12-08T00:21:51.912Z,0
2018-12-08T00:22:32.714Z,0
2018-12-08T00:23:13.580Z,0
2018-12-08T00:23:54.325Z,0
2018-12-08T00:24:35.041Z,0
2018-12-08T00:25:15.765Z,0
2018-12-08T00:25:57.806Z,0
2018-12-08T00:26:38.598Z,0
2018-12-08T00:27:19.424Z,0
2018-12-08T00:28:00.209Z,0
2018-12-08T00:28:41.397Z,0
2018-12-08T00:29:22.254Z,0
2018-12-08T00:30:03.226Z,0
2018-12-08T00:30:43.952Z,0
2018-12-08T00:31:24.725Z,0
2018-12-08T00:32:05.506Z,0
2018-12-08T00:32:46.362Z,0
2018-12-08T00:33:27.201Z,0
2018-12-08T00:34:07.950Z,0
2018-12-08T00:34:48.672Z,0
2018-12-08T00:35:50.838Z,0
2018-12-08T00:36:31.680Z,0
2018-12-08T00:37:12.424Z,0
2018-12-08T00:37:57.099Z,0
2018-12-08T00:38:37.225Z,0
2018-12-08T00:39:18.053Z,0
2018-12-08T00:39:58.896Z,0
2018-12-08T00:40:39.700Z,0
2018-12-08T00:41:20.461Z,0
2018-12-08T00:42:01.187Z,0
2018-12-08T00:42:41.915Z,0
2018-12-08T00:43:22.731Z,0
2018-12-08T00:44:03.515Z,0
2018-12-08T00:44:51.121Z,0
2018-12-08T00:45:37.232Z,0
2018-12-08T00:46:21.994Z,0
2018-12-08T00:47:02.773Z,0
2018-12-08T00:47:43.584Z,0
2018-12-08T00:48:24.314Z,0
2018-12-08T00:49:05.054Z,0
2018-12-08T00:49:45.754Z,0
2018-12-08T00:50:26.484Z,0
2018-12-08T00:51:07.275Z,0
2018-12-08T00:51:48.123Z,0
2018-12-08T00:52:28.814Z,0
2018-12-08T00:53:16.531Z,0
2018-12-08T00:53:57.334Z,0
2018-12-08T00:54:38.091Z,0
2018-12-08T00:55:18.789Z,0
2018-12-08T00:55:59.490Z,0
2018-12-08T00:56:40.248Z,0
2018-12-08T00:57:21.114Z,0
2018-12-08T00:58:01.869Z,0
2018-12-08T00:58:42.627Z,0
2018-12-08T00:59:23.394Z,0
2018-12-08T01:00:04.206Z,0
2018-12-08T01:00:45.028Z,0
2018-12-08T01:01:30.033Z,0
2018-12-08T01:02:10.771Z,0
2018-12-08T01:02:51.566Z,0
2018-12-08T01:03:32.338Z,0
2018-12-08T01:04:13.043Z,0
2018-12-08T01:04:53.765Z,0
2018-12-08T01:05:35.157Z,0
2018-12-08T01:06:16.056Z,0
2018-12-08T01:06:56.901Z,0
2018-12-08T01:07:37.616Z,0
2018-12-08T01:08:18.378Z,0
2018-12-08T01:08:59.117Z,0
2018-12-08T01:09:39.841Z,0
2018-12-08T01:10:20.607Z,0
2018-12-08T01:11:01.381Z,0
2018-12-08T01:11:42.091Z,0
2018-12-08T01:12:22.835Z,0
2018-12-08T01:13:03.610Z,0
2018-12-08T01:13:44.402Z,0
2018-12-08T01:14:25.128Z,0
2018-12-08T01:15:05.855Z,0
2018-12-08T01:15:46.689Z,0
2018-12-08T01:16:27.403Z,0
2018-12-08T01:17:10.771Z,0
2018-12-08T01:19:35.395Z,0
2018-12-08T01:20:16.155Z,0
2018-12-08T01:20:56.877Z,0
2018-12-08T01:21:37.660Z,0
2018-12-08T01:22:18.477Z,0
2018-12-08T01:22:59.295Z,0
2018-12-08T01:23:40.016Z,0
2018-12-08T01:24:20.737Z,0
2018-12-08T01:25:01.604Z,0
2018-12-08T01:25:42.391Z,0
2018-12-08T01:26:23.137Z,0
2018-12-08T01:27:03.867Z,0
2018-12-08T01:27:44.606Z,0
2018-12-08T01:28:25.402Z,0
2018-12-08T01:29:06.117Z,0
2018-12-08T01:29:55.265Z,0
2018-12-08T01:30:36.072Z,0
2018-12-08T01:31:16.905Z,0
2018-12-08T01:31:57.753Z,0
2018-12-08T01:32:38.449Z,0
2018-12-08T01:33:19.158Z,0
2018-12-08T01:33:59.881Z,0
2018-12-08T01:34:40.648Z,0
2018-12-08T01:35:21.483Z,0
2018-12-08T01:36:02.245Z,0
2018-12-08T01:36:42.998Z,0
2018-12-08T01:37:23.684Z,0
2018-12-08T01:38:04.447Z,0
2018-12-08T01:38:45.259Z,0
2018-12-08T01:39:25.983Z,0
2018-12-08T01:40:06.661Z,0
2018-12-08T01:40:47.436Z,0
2018-12-08T01:41:28.199Z,0
2018-12-08T01:42:08.982Z,0
2018-12-08T01:42:50.032Z,0
2018-12-08T01:43:30.739Z,0
2018-12-08T01:44:11.432Z,0
2018-12-08T01:44:52.143Z,0
2018-12-08T01:45:32.884Z,0
2018-12-08T01:46:13.711Z,0
2018-12-08T01:46:54.435Z,0
2018-12-08T01:47:35.208Z,0
2018-12-08T01:48:16.052Z,0
2018-12-08T01:48:56.809Z,0
2018-12-08T01:49:37.620Z,0
2018-12-08T01:50:18.353Z,0
2018-12-08T01:50:59.070Z,0
2018-12-08T01:51:40.950Z,0
2018-12-08T01:52:21.747Z,0
2018-12-08T01:53:02.520Z,0
2018-12-08T01:53:43.365Z,0
2018-12-08T01:54:24.053Z,0
2018-12-08T01:55:04.811Z,0
2018-12-08T01:55:45.586Z,0
2018-12-08T01:56:26.303Z,0
2018-12-08T01:57:06.985Z,0
2018-12-08T01:57:51.134Z,0
2018-12-08T01:58:31.889Z,0
2018-12-08T01:59:15.832Z,0
2018-12-08T01:59:56.538Z,0
2018-12-08T02:00:37.308Z,0
2018-12-08T02:01:18.143Z,0
2018-12-08T02:01:58.926Z,0
2018-12-08T02:02:39.733Z,0
2018-12-08T02:03:20.486Z,0
2018-12-08T02:04:01.232Z,0
2018-12-08T02:04:42.067Z,0
2018-12-08T02:05:24.513Z,0
2018-12-08T02:06:05.175Z,0
2018-12-08T02:06:48.198Z,0
2018-12-08T02:07:29.032Z,0
2018-12-08T02:08:09.847Z,0
2018-12-08T02:08:50.659Z,0
2018-12-08T02:09:32.564Z,0
2018-12-08T02:10:13.285Z,0
2018-12-08T02:10:54.050Z,0
2018-12-08T02:11:34.775Z,0
2018-12-08T02:12:15.589Z,0
2018-12-08T02:12:56.335Z,0
2018-12-08T02:13:37.092Z,0
2018-12-08T02:14:17.888Z,0
2018-12-08T02:15:02.084Z,0
2018-12-08T02:15:55.845Z,0
2018-12-08T02:16:40.753Z,0
2018-12-08T02:17:21.482Z,0
2018-12-08T02:18:02.229Z,0
2018-12-08T02:18:43.059Z,0
2018-12-08T02:19:23.795Z,0
2018-12-08T02:20:04.586Z,0
2018-12-08T02:20:45.321Z,0
2018-12-08T02:21:26.021Z,0
2018-12-08T02:22:06.844Z,0
2018-12-08T02:22:47.602Z,0
2018-12-08T02:23:28.344Z,0
2018-12-08T02:24:09.070Z,0
2018-12-08T02:24:49.780Z,0
2018-12-08T02:25:30.573Z,0
2018-12-08T02:26:12.247Z,0
2018-12-08T02:26:53.028Z,0
2018-12-08T02:27:33.766Z,0
2018-12-08T02:28:14.491Z,0
2018-12-08T02:28:55.201Z,0
2018-12-08T02:29:41.923Z,0
2018-12-08T02:30:22.666Z,0
2018-12-08T02:31:03.349Z,0
2018-12-08T02:31:44.124Z,0
2018-12-08T02:32:24.885Z,0
2018-12-08T02:33:05.710Z,0
2018-12-08T02:33:46.470Z,0
2018-12-08T02:34:27.184Z,0
2018-12-08T02:35:10.988Z,0
2018-12-08T02:35:51.715Z,0
2018-12-08T02:36:34.678Z,0
2018-12-08T02:37:15.426Z,0
2018-12-08T02:37:56.127Z,0
2018-12-08T02:38:36.929Z,0
2018-12-08T02:39:17.659Z,0
2018-12-08T02:39:58.386Z,0
2018-12-08T02:40:39.201Z,0
2018-12-08T02:41:19.973Z,0
2018-12-08T02:42:00.806Z,0
2018-12-08T02:42:41.520Z,0
2018-12-08T02:43:22.215Z,0
2018-12-08T02:44:02.925Z,0
2018-12-08T02:44:43.666Z,0
2018-12-08T02:45:24.495Z,0
2018-12-08T02:46:05.304Z,0
2018-12-08T02:46:46.051Z,0
2018-12-08T02:47:26.776Z,0
2018-12-08T02:48:07.531Z,0
2018-12-08T02:48:48.371Z,0
2018-12-08T02:49:44.014Z,0
2018-12-08T02:50:24.736Z,0
2018-12-08T02:51:05.463Z,0
2018-12-08T02:51:47.272Z,0
2018-12-08T02:52:28.044Z,0
2018-12-08T02:53:08.850Z,0
2018-12-08T02:53:49.582Z,0
2018-12-08T02:54:30.292Z,0
2018-12-08T02:55:11.007Z,0
2018-12-08T02:55:53.268Z,0
2018-12-08T02:56:34.043Z,0
2018-12-08T02:57:14.790Z,0
2018-12-08T02:57:55.541Z,0
2018-12-08T02:58:36.353Z,0
2018-12-08T02:59:17.145Z,0
2018-12-08T02:59:57.974Z,0
2018-12-08T03:00:38.670Z,0
2018-12-08T03:01:19.382Z,0
2018-12-08T03:02:00.149Z,0
2018-12-08T03:02:40.967Z,0
2018-12-08T03:03:21.720Z,0
2018-12-08T03:04:02.529Z,0
2018-12-08T03:04:43.273Z,0
2018-12-08T03:05:23.965Z,0
2018-12-08T03:06:04.836Z,0
2018-12-08T03:06:45.598Z,0
2018-12-08T03:07:26.331Z,0
2018-12-08T03:08:07.053Z,0
2018-12-08T03:08:47.820Z,0
2018-12-08T03:09:28.628Z,0
2018-12-08T03:10:09.362Z,0
2018-12-08T03:10:50.128Z,0
2018-12-08T03:11:30.954Z,0
2018-12-08T03:12:11.726Z,0
2018-12-08T03:12:52.551Z,0
2018-12-08T03:13:33.284Z,0
2018-12-08T03:14:14.028Z,0
2018-12-08T03:14:54.827Z,0
2018-12-08T03:15:35.581Z,0
2018-12-08T03:16:16.285Z,0
2018-12-08T03:16:57.006Z,0
2018-12-08T03:17:37.746Z,0
2018-12-08T03:18:18.590Z,0
2018-12-08T03:18:59.455Z,0
2018-12-08T03:19:40.228Z,0
2018-12-08T03:20:20.940Z,0
2018-12-08T03:21:01.692Z,0
2018-12-08T03:21:42.469Z,0
2018-12-08T03:22:23.340Z,0
2018-12-08T03:23:04.092Z,0
2018-12-08T03:23:44.771Z,0
2018-12-08T03:24:25.573Z,0
2018-12-08T03:25:06.346Z,0
2018-12-08T03:25:47.146Z,0
2018-12-08T03:26:27.857Z,0
2018-12-08T03:27:08.596Z,0
2018-12-08T03:27:49.402Z,0
2018-12-08T03:28:30.113Z,0
2018-12-08T03:29:10.833Z,0
2018-12-08T03:29:51.513Z,0
2018-12-08T03:30:32.278Z,0
2018-12-08T03:31:13.077Z,0
2018-12-08T03:31:54.432Z,0
2018-12-08T03:32:35.157Z,0
2018-12-08T03:33:15.975Z,0
2018-12-08T03:33:56.760Z,0
2018-12-08T03:34:37.520Z,0
2018-12-08T03:35:18.255Z,0
2018-12-08T03:35:59.033Z,0
2018-12-08T03:36:39.717Z,0
2018-12-08T03:37:20.529Z,0
2018-12-08T03:38:01.287Z,0
2018-12-08T03:38:42.087Z,0
2018-12-08T03:39:22.884Z,0
2018-12-08T03:40:03.636Z,0
2018-12-08T03:40:44.457Z,0
2018-12-08T03:41:25.235Z,0
2018-12-08T03:42:05.958Z,0
2018-12-08T03:42:46.682Z,0
2018-12-08T03:43:27.422Z,0
2018-12-08T03:44:08.221Z,0
2018-12-08T03:44:48.986Z,0
2018-12-08T03:45:29.682Z,0
2018-12-08T03:46:10.510Z,0
2018-12-08T03:46:51.294Z,0
2018-12-08T03:47:32.059Z,0
2018-12-08T03:48:12.894Z,0
2018-12-08T03:48:53.591Z,0
2018-12-08T03:49:35.129Z,0
2018-12-08T03:50:15.864Z,0
2018-12-08T03:50:56.617Z,0
2018-12-08T03:51:37.313Z,0
2018-12-08T03:52:18.070Z,0
2018-12-08T03:52:58.856Z,0
2018-12-08T03:53:39.903Z,0
2018-12-08T03:54:20.690Z,0
2018-12-08T03:55:01.424Z,0
2018-12-08T03:55:42.163Z,0
2018-12-08T03:56:26.099Z,0
2018-12-08T03:57:06.910Z,0
2018-12-08T03:57:47.714Z,0
2018-12-08T03:58:28.440Z,0
2018-12-08T03:59:09.208Z,0
2018-12-08T03:59:52.932Z,0
2018-12-08T04:00:33.710Z,0
2018-12-08T04:01:14.413Z,0
2018-12-08T04:01:55.171Z,0
2018-12-08T04:02:35.948Z,0
2018-12-08T04:03:16.727Z,0
2018-12-08T04:03:57.484Z,0
2018-12-08T04:04:38.279Z,0
2018-12-08T04:05:19.052Z,0
2018-12-08T04:05:59.780Z,0
2018-12-08T04:06:40.626Z,0
2018-12-08T04:07:21.399Z,0
2018-12-08T04:08:02.169Z,0
2018-12-08T04:08:42.868Z,0
2018-12-08T04:09:23.643Z,0
2018-12-08T04:10:05.192Z,0
2018-12-08T04:10:45.168Z,0
2018-12-08T04:11:26.029Z,0
2018-12-08T04:12:06.800Z,0
2018-12-08T04:12:47.551Z,0
2018-12-08T04:13:28.303Z,0
2018-12-08T04:14:09.027Z,0
2018-12-08T04:14:49.817Z,0
2018-12-08T04:15:30.588Z,0
2018-12-08T04:16:11.292Z,0
2018-12-08T04:16:52.123Z,0
2018-12-08T04:17:33.004Z,0
2018-12-08T04:18:13.782Z,0
2018-12-08T04:18:54.513Z,0
2018-12-08T04:19:35.273Z,0
2018-12-08T04:20:16.112Z,0
2018-12-08T04:20:56.834Z,0
2018-12-08T04:21:37.532Z,0
2018-12-08T04:22:18.316Z,0
2018-12-08T04:22:59.073Z,0
2018-12-08T04:23:39.826Z,0
2018-12-08T04:24:20.559Z,0
2018-12-08T04:25:01.316Z,0
2018-12-08T04:25:42.093Z,0
2018-12-08T04:26:22.875Z,0
2018-12-08T04:27:03.673Z,0
2018-12-08T04:27:44.416Z,0
2018-12-08T04:28:25.145Z,0
2018-12-08T04:29:05.873Z,0
2018-12-08T04:29:46.683Z,0
2018-12-08T04:30:27.469Z,0
2018-12-08T04:31:08.274Z,0
2018-12-08T04:31:49.005Z,0
2018-12-08T04:32:29.692Z,0
2018-12-08T04:33:10.500Z,0
2018-12-08T04:33:51.232Z,0
2018-12-08T04:34:31.946Z,0
2018-12-08T04:35:12.673Z,0
2018-12-08T04:35:54.602Z,0
2018-12-08T04:36:34.182Z,0
2018-12-08T04:37:14.985Z,0
2018-12-08T04:37:55.808Z,0
2018-12-08T04:38:36.514Z,0
2018-12-08T04:39:17.237Z,0
2018-12-08T04:39:57.977Z,0
2018-12-08T04:40:38.738Z,0
2018-12-08T04:41:19.532Z,0
2018-12-08T04:42:00.268Z,0
2018-12-08T04:42:41.028Z,0
2018-12-08T04:43:21.836Z,0
2018-12-08T04:44:02.581Z,0
2018-12-08T04:44:49.312Z,0
2018-12-08T04:45:30.022Z,0
2018-12-08T04:46:10.764Z,0
2018-12-08T04:46:51.536Z,0
2018-12-08T04:47:32.303Z,0
2018-12-08T04:48:13.128Z,0
2018-12-08T04:48:53.995Z,0
2018-12-08T04:49:34.715Z,0
2018-12-08T04:50:15.440Z,0
2018-12-08T04:50:56.256Z,0
2018-12-08T04:51:36.979Z,0
2018-12-08T04:52:17.729Z,0
2018-12-08T04:52:58.472Z,0
2018-12-08T04:53:39.214Z,0
2018-12-08T04:54:20.033Z,0
2018-12-08T04:55:00.775Z,0
2018-12-08T04:55:41.498Z,0
2018-12-08T04:56:22.325Z,0
2018-12-08T04:57:03.119Z,0
2018-12-08T04:57:43.931Z,0
2018-12-08T04:58:24.662Z,0
2018-12-08T04:59:12.064Z,0
2018-12-08T04:59:52.895Z,0
2018-12-08T05:00:33.592Z,0
2018-12-08T05:01:14.322Z,0
2018-12-08T05:01:56.318Z,0
2018-12-08T05:02:36.765Z,0
2018-12-08T05:03:17.549Z,0
2018-12-08T05:03:58.303Z,0
2018-12-08T05:04:39.044Z,0
2018-12-08T05:05:19.777Z,0
2018-12-08T05:06:00.488Z,0
2018-12-08T05:06:41.993Z,0
2018-12-08T05:07:22.799Z,0
2018-12-08T05:08:03.586Z,0
2018-12-08T05:08:44.311Z,0
2018-12-08T05:09:25.078Z,0
2018-12-08T05:10:05.887Z,0
2018-12-08T05:10:46.726Z,0
2018-12-08T05:11:27.395Z,0
2018-12-08T05:12:08.086Z,0
2018-12-08T05:12:48.810Z,0
2018-12-08T05:13:29.619Z,0
2018-12-08T05:14:10.471Z,0
2018-12-08T05:14:51.244Z,0
2018-12-08T05:15:31.998Z,0
2018-12-08T05:16:12.698Z,0
2018-12-08T05:16:53.490Z,0
2018-12-08T05:17:36.862Z,0
2018-12-08T05:18:17.590Z,0
2018-12-08T05:18:58.276Z,0
2018-12-08T05:19:39.022Z,0
2018-12-08T05:20:19.805Z,0
2018-12-08T05:21:00.627Z,0
2018-12-08T05:21:41.441Z,0
2018-12-08T05:22:22.203Z,0
2018-12-08T05:23:02.942Z,0
2018-12-08T05:23:43.672Z,0
2018-12-08T05:24:24.540Z,0
2018-12-08T05:25:05.352Z,0
2018-12-08T05:25:46.087Z,0
2018-12-08T05:26:26.873Z,0
2018-12-08T05:27:07.692Z,0
2018-12-08T05:27:48.485Z,0
2018-12-08T05:28:29.296Z,0
2018-12-08T05:29:10.007Z,0
2018-12-08T05:29:50.864Z,0
2018-12-08T05:30:31.561Z,0
2018-12-08T05:31:12.510Z,0
2018-12-08T05:31:53.225Z,0
2018-12-08T05:32:33.939Z,0
2018-12-08T05:33:14.717Z,0
2018-12-08T05:33:55.461Z,0
2018-12-08T05:34:36.185Z,0
2018-12-08T05:35:17.007Z,0
2018-12-08T05:35:58.818Z,0
2018-12-08T05:36:39.633Z,0
2018-12-08T05:37:20.396Z,0
2018-12-08T05:38:01.182Z,0
2018-12-08T05:38:41.885Z,0
2018-12-08T05:39:23.361Z,0
2018-12-08T05:40:10.783Z,0
2018-12-08T05:40:51.533Z,0
2018-12-08T05:41:35.090Z,0
2018-12-08T05:42:15.832Z,0
2018-12-08T05:42:56.610Z,0
2018-12-08T05:43:37.443Z,0
2018-12-08T05:44:18.177Z,0
2018-12-08T05:44:58.917Z,0
2018-12-08T05:45:39.636Z,0
2018-12-08T05:46:20.409Z,0
2018-12-08T05:47:01.221Z,0
2018-12-08T05:47:41.926Z,0
2018-12-08T05:48:22.654Z,0
2018-12-08T05:49:03.450Z,0
2018-12-08T05:49:44.289Z,0
2018-12-08T05:50:25.066Z,0
2018-12-08T05:51:05.781Z,0
2018-12-08T05:51:46.528Z,0
2018-12-08T05:52:27.336Z,0
2018-12-08T05:53:08.028Z,0
2018-12-08T05:53:48.757Z,0
2018-12-08T05:54:29.454Z,0
2018-12-08T05:55:10.239Z,0
2018-12-08T05:55:51.007Z,0
2018-12-08T05:56:31.808Z,0
2018-12-08T05:57:12.504Z,0
2018-12-08T05:57:53.210Z,0
2018-12-08T05:58:33.935Z,0
2018-12-08T05:59:14.663Z,0
2018-12-08T05:59:55.471Z,0
2018-12-08T06:00:36.171Z,0
2018-12-08T06:01:16.926Z,0
2018-12-08T06:01:57.757Z,0
2018-12-08T06:02:38.500Z,0
2018-12-08T06:03:19.320Z,0
2018-12-08T06:04:00.009Z,0
2018-12-08T06:04:40.781Z,0
2018-12-08T06:05:21.574Z,0
2018-12-08T06:06:02.314Z,0
2018-12-08T06:06:43.032Z,0
2018-12-08T06:07:23.799Z,0
2018-12-08T06:08:04.667Z,0
2018-12-08T06:08:45.328Z,0
2018-12-08T06:09:26.078Z,0
2018-12-08T06:10:06.862Z,0
2018-12-08T06:10:47.650Z,0
2018-12-08T06:11:28.430Z,0
2018-12-08T06:12:09.199Z,0
2018-12-08T06:12:51.720Z,0
2018-12-08T06:13:32.463Z,0
2018-12-08T06:14:13.216Z,0
2018-12-08T06:14:54.093Z,0
2018-12-08T06:15:34.866Z,0
2018-12-08T06:16:15.671Z,0
2018-12-08T06:16:56.446Z,0
2018-12-08T06:17:37.211Z,0
2018-12-08T06:18:18.049Z,0
2018-12-08T06:18:58.805Z,0
2018-12-08T06:19:39.549Z,0
2018-12-08T06:20:20.287Z,0
2018-12-08T06:21:02.379Z,0
2018-12-08T06:21:42.672Z,0
2018-12-08T06:22:23.445Z,0
2018-12-08T06:23:04.197Z,0
2018-12-08T06:23:44.956Z,0
2018-12-08T06:24:27.936Z,0
2018-12-08T06:25:08.725Z,0
2018-12-08T06:25:49.563Z,0
2018-12-08T06:26:30.330Z,0
2018-12-08T06:27:11.061Z,0
2018-12-08T06:27:51.831Z,0
2018-12-08T06:28:32.609Z,0
2018-12-08T06:29:13.447Z,0
2018-12-08T06:29:54.171Z,0
2018-12-08T06:30:34.898Z,0
2018-12-08T06:31:15.612Z,0
2018-12-08T06:31:56.333Z,0
2018-12-08T06:32:37.112Z,0
2018-12-08T06:33:17.915Z,0
2018-12-08T06:33:58.697Z,0
2018-12-08T06:34:39.438Z,0
2018-12-08T06:35:20.262Z,0
2018-12-08T06:36:01.053Z,0
2018-12-08T06:36:41.780Z,0
2018-12-08T06:37:22.451Z,0
2018-12-08T06:38:03.213Z,0
2018-12-08T06:38:44.033Z,0
2018-12-08T06:39:24.840Z,0
2018-12-08T06:40:05.610Z,0
2018-12-08T06:40:46.377Z,0
2018-12-08T06:41:27.581Z,0
2018-12-08T06:42:08.446Z,0
2018-12-08T06:42:49.171Z,0
2018-12-08T06:43:32.809Z,0
2018-12-08T06:44:13.599Z,0
2018-12-08T06:44:54.352Z,0
2018-12-08T06:45:35.054Z,0
2018-12-08T06:46:15.758Z,0
2018-12-08T06:46:56.550Z,0
2018-12-08T06:47:37.415Z,0
2018-12-08T06:48:18.186Z,0
2018-12-08T06:49:05.646Z,0
2018-12-08T06:49:46.386Z,0
2018-12-08T06:50:27.116Z,0
2018-12-08T06:51:07.859Z,0
2018-12-08T06:51:48.584Z,0
2018-12-08T06:52:32.797Z,0
2018-12-08T06:53:13.497Z,0
2018-12-08T06:53:54.253Z,0
2018-12-08T06:54:35.077Z,4
2018-12-08T06:55:15.876Z,4
2018-12-08T06:55:58.019Z,0
2018-12-08T06:56:38.763Z,0
2018-12-08T06:57:19.569Z,4
2018-12-08T06:58:00.299Z,4
2018-12-08T06:58:41.018Z,0
2018-12-08T06:59:21.720Z,0
2018-12-08T07:00:02.436Z,4
2018-12-08T07:00:43.226Z,4
2018-12-08T07:01:23.991Z,4
2018-12-08T07:02:04.692Z,0
2018-12-08T07:02:45.481Z,4
2018-12-08T07:03:26.224Z,4
2018-12-08T07:04:07.010Z,0
2018-12-08T07:04:47.752Z,0
2018-12-08T07:05:33.138Z,4
2018-12-08T07:06:13.889Z,4
2018-12-08T07:06:54.607Z,4
2018-12-08T07:07:35.434Z,4
2018-12-08T07:08:16.259Z,4
2018-12-08T07:08:57.060Z,4
2018-12-08T07:09:37.795Z,8
2018-12-08T07:10:18.591Z,8
2018-12-08T07:10:59.369Z,4
2018-12-08T07:11:46.751Z,4
2018-12-08T07:12:28.288Z,8
2018-12-08T07:13:08.213Z,4
2018-12-08T07:13:49.848Z,8
2018-12-08T07:14:30.571Z,8
2018-12-08T07:15:11.268Z,8
2018-12-08T07:15:52.064Z,8
2018-12-08T07:16:32.816Z,12
2018-12-08T07:17:13.627Z,8
2018-12-08T07:17:54.366Z,12
2018-12-08T07:18:37.226Z,12
2018-12-08T07:19:18.068Z,8
2018-12-08T07:19:58.870Z,12
2018-12-08T07:20:39.568Z,12
2018-12-08T07:21:27.105Z,12
2018-12-08T07:22:07.849Z,16
2018-12-08T07:22:48.634Z,16
2018-12-08T07:23:29.376Z,16
2018-12-08T07:24:10.171Z,16
2018-12-08T07:24:50.874Z,16
2018-12-08T07:25:31.623Z,20
2018-12-08T07:26:12.312Z,24
2018-12-08T07:26:53.096Z,24
2018-12-08T07:27:33.862Z,24
2018-12-08T07:28:14.537Z,24
2018-12-08T07:28:55.270Z,24
2018-12-08T07:29:36.080Z,24
2018-12-08T07:30:16.895Z,32
2018-12-08T07:30:57.635Z,32
2018-12-08T07:31:38.294Z,32
2018-12-08T07:32:19.005Z,32
2018-12-08T07:32:59.752Z,32
2018-12-08T07:33:40.554Z,36
2018-12-08T07:34:21.319Z,36
2018-12-08T07:35:04.647Z,36
2018-12-08T07:35:44.654Z,40
2018-12-08T07:36:25.403Z,40
2018-12-08T07:37:06.188Z,40
2018-12-08T07:37:46.979Z,40
2018-12-08T07:38:27.671Z,40
2018-12-08T07:39:08.678Z,44
2018-12-08T07:39:49.406Z,44
2018-12-08T07:40:30.264Z,48
2018-12-08T07:41:11.093Z,44
2018-12-08T07:41:51.856Z,48
2018-12-08T07:42:32.663Z,48
2018-12-08T07:43:13.421Z,52
2018-12-08T07:43:54.133Z,48
2018-12-08T07:44:34.983Z,52
2018-12-08T07:45:15.758Z,52
2018-12-08T07:45:56.528Z,52
2018-12-08T07:46:37.380Z,56
2018-12-08T07:47:18.209Z,52
2018-12-08T07:47:58.982Z,56
2018-12-08T07:48:39.718Z,60
2018-12-08T07:49:21.337Z,60
2018-12-08T07:50:02.110Z,60
2018-12-08T07:50:42.867Z,64
2018-12-08T07:51:30.758Z,64
2018-12-08T07:52:24.973Z,68
2018-12-08T07:53:05.756Z,68
2018-12-08T07:54:02.808Z,68
2018-12-08T07:54:43.647Z,72
2018-12-08T07:55:24.370Z,72
2018-12-08T07:56:05.245Z,76
2018-12-08T07:56:46.004Z,76
2018-12-08T07:57:26.864Z,80
2018-12-08T07:58:09.763Z,80
2018-12-08T07:58:57.166Z,80
2018-12-08T07:59:39.160Z,84
2018-12-08T08:00:20.085Z,84
2018-12-08T08:01:00.901Z,84
2018-12-08T08:01:41.796Z,84
2018-12-08T08:02:22.549Z,88
2018-12-08T08:03:18.210Z,88
2018-12-08T08:04:06.004Z,92
2018-12-08T08:05:01.654Z,92
2018-12-08T08:05:42.343Z,92
2018-12-08T08:06:37.977Z,96
2018-12-08T08:07:18.668Z,96
2018-12-08T08:08:02.178Z,100
2018-12-08T08:08:42.914Z,100
2018-12-08T08:09:23.672Z,100
2018-12-08T08:10:07.327Z,100
2018-12-08T08:10:48.174Z,104
2018-12-08T08:11:29.002Z,104
2018-12-08T08:12:09.697Z,108
2018-12-08T08:12:57.148Z,108
2018-12-08T08:14:20.857Z,112
2018-12-08T08:15:01.517Z,112
2018-12-08T08:15:42.239Z,112
2018-12-08T08:18:12.424Z,120
2018-12-08T08:20:44.093Z,124
2018-12-08T08:21:24.860Z,128
2018-12-08T08:22:05.703Z,132
2018-12-08T08:22:46.434Z,132
2018-12-08T08:23:27.114Z,132
2018-12-08T08:24:10.379Z,136
2018-12-08T08:26:08.225Z,144
2018-12-08T08:26:49.030Z,144
2018-12-08T08:27:29.876Z,144
2018-12-08T08:28:10.696Z,148
2018-12-08T08:28:51.514Z,144
2018-12-08T08:29:32.231Z,148
2018-12-08T08:30:12.937Z,152
2018-12-08T08:30:53.730Z,156
2018-12-08T08:31:34.549Z,152
2018-12-08T08:32:15.320Z,152
2018-12-08T08:32:56.308Z,152
2018-12-08T08:33:37.037Z,156
2018-12-08T08:34:17.814Z,156
2018-12-08T08:34:58.600Z,152
2018-12-08T08:35:39.363Z,152
2018-12-08T08:36:20.104Z,152
2018-12-08T08:37:00.865Z,152
2018-12-08T08:37:41.604Z,152
2018-12-08T08:38:22.444Z,156
2018-12-08T08:39:03.237Z,152
2018-12-08T08:39:43.978Z,152
2018-12-08T08:40:24.824Z,152
2018-12-08T08:41:05.637Z,160
2018-12-08T08:41:46.396Z,164
2018-12-08T08:42:27.143Z,160
2018-12-08T08:43:21.748Z,164
2018-12-08T08:44:02.801Z,164
2018-12-08T08:46:18.261Z,180
2018-12-08T08:47:13.827Z,184
2018-12-08T08:47:58.785Z,184
2018-12-08T08:48:40.021Z,184
2018-12-08T08:49:20.886Z,184
2018-12-08T08:50:01.666Z,188
2018-12-08T08:50:56.388Z,184
2018-12-08T08:51:37.222Z,188
2018-12-08T08:52:18.104Z,188
2018-12-08T08:52:58.841Z,200
2018-12-08T08:53:39.706Z,212
2018-12-08T08:54:20.422Z,212
2018-12-08T08:55:07.896Z,216
2018-12-08T08:55:48.783Z,216
2018-12-08T08:56:29.516Z,220
2018-12-08T08:57:10.240Z,220
2018-12-08T08:57:51.114Z,224
2018-12-08T08:58:31.927Z,228
2018-12-08T08:59:12.690Z,232
2018-12-08T09:00:08.101Z,232
2018-12-08T09:00:55.767Z,228
2018-12-08T09:01:36.759Z,224
2018-12-08T09:02:17.522Z,216
2018-12-08T09:03:07.039Z,208
2018-12-08T09:03:50.145Z,208
2018-12-08T09:04:45.106Z,212
2018-12-08T09:05:25.874Z,216
2018-12-08T09:06:06.694Z,216
2018-12-08T09:06:47.490Z,216
2018-12-08T09:07:28.363Z,212
2018-12-08T09:08:41.908Z,224
2018-12-08T09:09:29.083Z,232
2018-12-08T09:10:09.825Z,224
2018-12-08T09:10:50.605Z,220
2018-12-08T09:11:46.219Z,216
2018-12-08T09:12:27.654Z,216
2018-12-08T09:13:08.557Z,216
2018-12-08T09:13:52.569Z,216
2018-12-08T09:14:33.316Z,228
2018-12-08T09:15:14.294Z,232
2018-12-08T09:16:10.509Z,228
2018-12-08T09:17:06.398Z,220
2018-12-08T09:17:47.199Z,216
2018-12-08T09:18:29.391Z,220
2018-12-08T09:19:11.443Z,224
2018-12-08T09:19:52.237Z,232
2018-12-08T09:20:33.069Z,232
2018-12-08T09:21:13.797Z,228
2018-12-08T09:21:54.534Z,236
2018-12-08T09:22:35.277Z,240
2018-12-08T09:23:15.979Z,256
2018-12-08T09:24:03.809Z,256
2018-12-08T09:24:44.534Z,252
2018-12-08T09:25:25.235Z,252
2018-12-08T09:26:06.041Z,260
2018-12-08T09:26:46.949Z,264
2018-12-08T09:27:27.808Z,256
2018-12-08T09:28:12.175Z,248
2018-12-08T09:28:52.865Z,252
2018-12-08T09:29:33.592Z,260
2018-12-08T09:30:15.719Z,260
2018-12-08T09:30:56.523Z,268
2018-12-08T09:31:37.393Z,260
2018-12-08T09:32:18.130Z,252
2018-12-08T09:32:58.857Z,248
2018-12-08T09:33:39.661Z,236
2018-12-08T09:34:20.444Z,236
2018-12-08T09:35:01.169Z,224
2018-12-08T09:35:41.875Z,220
2018-12-08T09:36:22.590Z,220
2018-12-08T09:37:03.391Z,220
2018-12-08T09:37:44.445Z,236
2018-12-08T09:38:27.910Z,248
2018-12-08T09:39:11.965Z,244
2018-12-08T09:39:52.989Z,236
2018-12-08T09:40:33.845Z,236
2018-12-08T09:41:14.615Z,256
2018-12-08T09:41:55.346Z,260
2018-12-08T09:42:38.963Z,256
2018-12-08T09:43:23.173Z,264
2018-12-08T09:44:04.520Z,248
2018-12-08T09:44:45.197Z,228
2018-12-08T09:45:32.773Z,208
2018-12-08T09:46:13.661Z,212
2018-12-08T09:46:54.408Z,216
2018-12-08T09:47:39.201Z,216
2018-12-08T09:48:19.967Z,220
2018-12-08T09:49:00.700Z,216
2018-12-08T09:49:46.087Z,212
2018-12-08T09:50:26.872Z,220
2018-12-08T09:51:07.654Z,220
2018-12-08T09:51:48.343Z,224
2018-12-08T09:52:32.063Z,224
2018-12-08T09:53:12.863Z,224
2018-12-08T09:53:53.687Z,224
2018-12-08T09:54:34.434Z,192
2018-12-08T09:55:15.194Z,176
2018-12-08T09:55:56.358Z,164
2018-12-08T09:56:37.077Z,168
2018-12-08T09:57:17.878Z,184
2018-12-08T09:57:58.645Z,216
2018-12-08T09:58:39.470Z,232
2018-12-08T09:59:28.086Z,184
2018-12-08T10:00:15.778Z,208
2018-12-08T10:00:56.596Z,200
2018-12-08T10:01:37.342Z,196
2018-12-08T10:02:18.093Z,196
2018-12-08T10:02:58.750Z,200
2018-12-08T10:03:39.500Z,200
2018-12-08T10:04:20.319Z,280
2018-12-08T10:05:01.782Z,240
2018-12-08T10:05:42.595Z,292
2018-12-08T10:06:23.362Z,296
2018-12-08T10:07:04.087Z,296
2018-12-08T10:07:44.796Z,276
2018-12-08T10:08:25.642Z,292
2018-12-08T10:09:06.416Z,292
2018-12-08T10:09:47.182Z,288
2018-12-08T10:10:28.013Z,284
2018-12-08T10:11:08.803Z,292
2018-12-08T10:11:49.759Z,312
2018-12-08T10:12:30.539Z,316
2018-12-08T10:13:13.384Z,324
2018-12-08T10:13:54.330Z,328
2018-12-08T10:14:38.060Z,332
2018-12-08T10:15:25.659Z,320